Time;durP1;ratioP1;P1;durP2;ratioP2;P2;SDS_P1;SDS_P2;PMS_P1;PMS_P2;Temp;Humidity;BMP_temperature;BMP_pressure;BME280_temperature;BME280_humidity;BME280_pressure;Samples;Min_cycle;Max_cycle;Signal;HPM_P1;HPM_P2
2022/04/25 00:01:16;;;;;;;13.50;12.10;;;;;;;11.91;72.79;98826.97;4863842;28;96698;-82
2022/04/25 00:03:42;;;;;;;13.18;11.50;;;;;;;11.78;73.30;98827.72;4894863;28;96862;-83
2022/04/25 00:06:08;;;;;;;14.52;12.15;;;;;;;12.01;73.37;98862.25;4878449;28;101042;-82
2022/04/25 00:08:34;;;;;;;14.90;12.07;;;;;;;11.95;73.50;98852.13;4895275;28;98116;-84
2022/04/25 00:11:00;;;;;;;13.48;11.57;;;;;;;11.97;73.66;98861.63;4878847;28;96764;-83
2022/04/25 00:13:25;;;;;;;14.32;12.43;;;;;;;12.06;73.15;98869.88;4879413;28;97060;-82
2022/04/25 00:15:52;;;;;;;14.45;12.00;;;;;;;12.00;72.87;98855.31;4894493;28;101714;-82
2022/04/25 00:18:18;;;;;;;14.55;12.18;;;;;;;11.93;73.11;98841.72;4863670;28;101970;-82
2022/04/25 00:20:44;;;;;;;15.85;13.20;;;;;;;12.02;73.27;98863.13;4878825;28;96854;-83
2022/04/25 00:23:10;;;;;;;15.52;13.63;;;;;;;11.92;73.29;98855.78;4879877;28;97152;-82
2022/04/25 00:25:35;;;;;;;15.02;12.75;;;;;;;12.00;73.25;98863.22;4863335;28;101932;-82
2022/04/25 00:28:02;;;;;;;15.55;12.73;;;;;;;11.93;72.92;98854.88;4879032;28;102131;-83
2022/04/25 00:30:31;;;;;;;13.75;11.82;;;;;;;11.91;72.80;98858.53;4878732;28;97283;-82
2022/04/25 00:32:57;;;;;;;13.52;11.85;;;;;;;12.12;72.47;98867.69;4895369;28;97341;-82
2022/04/25 00:35:24;;;;;;;11.70;10.50;;;;;;;11.93;73.09;98849.63;4863170;28;101705;-82
2022/04/25 00:37:50;;;;;;;11.25;10.05;;;;;;;12.10;72.78;98872.22;4878511;28;100981;-83
2022/04/25 00:40:18;;;;;;;13.45;10.70;;;;;;;12.09;72.32;98867.06;4894934;28;96692;-82
2022/04/25 00:42:44;;;;;;;10.55;9.52;;;;;;;12.12;72.31;98864.22;4863180;28;97065;-82
2022/04/25 00:45:11;;;;;;;12.45;10.30;;;;;;;12.13;72.09;98868.53;4879163;28;101433;-82
2022/04/25 00:47:38;;;;;;;9.82;8.82;;;;;;;12.10;72.01;98871.34;4895621;28;98037;-83
2022/04/25 00:50:04;;;;;;;11.05;9.73;;;;;;;12.10;72.44;98874.00;4878860;28;96664;-82
2022/04/25 00:52:29;;;;;;;10.45;9.35;;;;;;;12.10;71.97;98856.44;4863545;28;96857;-83
2022/04/25 00:54:55;;;;;;;12.65;10.57;;;;;;;12.27;71.55;98868.50;4912759;28;98555;-83
2022/04/25 00:57:20;;;;;;;14.13;11.15;;;;;;;12.06;71.25;98838.31;4898596;28;98508;-82
2022/04/25 00:59:47;;;;;;;13.95;11.10;;;;;;;12.14;71.80;98868.44;4865782;28;96816;-83
2022/04/25 01:02:13;;;;;;;14.30;9.73;;;;;;;11.82;71.66;98809.13;4866536;28;96791;-83
2022/04/25 01:04:38;;;;;;;12.65;10.60;;;;;;;12.05;71.94;98845.38;4866075;28;100872;-82
2022/04/25 01:07:04;;;;;;;11.38;9.90;;;;;;;12.04;72.14;98841.03;4881718;28;101491;-82
2022/04/25 01:09:30;;;;;;;14.77;10.57;;;;;;;11.89;71.51;98816.56;4881816;28;97199;-83
2022/04/25 01:11:58;;;;;;;11.43;9.25;;;;;;;11.85;72.06;98811.56;4866552;28;96848;-83
2022/04/25 01:14:24;;;;;;;11.95;9.18;;;;;;;12.16;71.98;98856.06;4881721;28;101383;-82
2022/04/25 01:16:49;;;;;;;11.18;9.88;;;;;;;12.04;71.66;98843.66;4881963;28;97881;-83
2022/04/25 01:19:15;;;;;;;11.38;9.50;;;;;;;12.14;71.59;98854.47;4913036;28;97624;-83
2022/04/25 01:21:50;;;;;;;12.63;9.77;;;;;;;12.15;71.23;98835.94;4866449;28;97754;-87
2022/04/25 01:27:18;;;;;;;12.45;11.02;;;;;;;11.90;71.44;98805.13;4900422;28;98503;-82
2022/04/25 01:29:48;;;;;;;15.80;12.50;;;;;;;11.97;71.41;98821.34;4897123;28;96693;-82
2022/04/25 01:32:15;;;;;;;16.90;13.30;;;;;;;12.02;71.31;98827.16;4866295;28;96949;-82
2022/04/25 01:34:42;;;;;;;16.17;12.45;;;;;;;12.21;71.34;98847.84;4897694;28;97698;-82
2022/04/25 01:37:10;;;;;;;15.40;12.00;;;;;;;11.95;71.47;98825.84;4882332;28;97478;-84
2022/04/25 01:39:37;;;;;;;16.40;12.50;;;;;;;12.01;72.01;98854.38;4881472;28;96883;-83
2022/04/25 01:42:04;;;;;;;15.32;11.70;;;;;;;12.02;72.04;98855.25;4881440;28;96915;-82
2022/04/25 01:44:29;;;;;;;11.70;10.43;;;;;;;12.03;71.98;98852.50;4880560;28;98230;-82
2022/04/25 01:46:55;;;;;;;13.25;10.52;;;;;;;12.04;71.91;98854.19;4865362;28;101409;-83
2022/04/25 01:49:21;;;;;;;12.85;9.98;;;;;;;11.73;71.79;98795.63;4897572;28;96685;-83
2022/04/25 01:51:47;;;;;;;10.65;9.55;;;;;;;11.94;71.66;98830.25;4865935;28;96908;-83
2022/04/25 01:54:13;;;;;;;11.45;10.25;;;;;;;11.95;71.22;98815.31;4881195;28;101318;-83
2022/04/25 01:56:38;;;;;;;16.90;11.02;;;;;;;11.93;71.35;98809.34;4882302;28;97907;-83
2022/04/25 01:59:04;;;;;;;13.18;10.02;;;;;;;11.77;71.59;98801.53;4864957;28;97198;-83
2022/04/25 02:01:29;;;;;;;13.00;10.27;;;;;;;11.88;72.13;98838.53;4866376;28;96969;-82
2022/04/25 02:03:55;;;;;;;12.07;9.77;;;;;;;11.98;72.20;98857.19;4864573;28;101842;-83
2022/04/25 02:06:20;;;;;;;9.80;8.77;;;;;;;11.89;72.21;98845.47;4896490;28;101365;-82
2022/04/25 02:08:46;;;;;;;10.27;9.07;;;;;;;11.68;71.95;98815.25;4879850;28;96795;-83
2022/04/25 02:11:21;;;;;;;9.52;8.02;;;;;;;11.99;72.31;98864.16;4846742;28;97153;-83
2022/04/25 02:13:54;;;;;;;13.35;8.10;;;;;;;11.93;72.39;98843.53;4893645;28;101783;-83
2022/04/25 02:16:21;;;;;;;9.40;7.40;;;;;;;11.86;72.71;98858.81;4878089;28;100455;-82
2022/04/25 02:18:47;;;;;;;8.95;7.93;;;;;;;11.75;72.38;98827.06;4877260;28;96660;-83
2022/04/25 02:21:13;;;;;;;8.95;6.90;;;;;;;11.74;72.77;98831.47;4878035;28;96915;-83
2022/04/25 02:23:39;;;;;;;8.35;6.75;;;;;;;11.84;72.67;98847.53;4861712;28;101599;-83
2022/04/25 02:26:05;;;;;;;7.15;5.90;;;;;;;11.84;72.46;98838.78;4877613;28;101340;-83
2022/04/25 02:28:31;;;;;;;7.28;6.00;;;;;;;11.94;72.14;98860.97;4862162;28;96558;-83
2022/04/25 02:30:58;;;;;;;7.75;5.60;;;;;;;11.95;72.53;98863.50;4877240;28;96722;-82
2022/04/25 02:33:24;;;;;;;6.32;5.32;;;;;;;11.89;72.02;98849.91;4861577;28;101106;-82
2022/04/25 02:35:50;;;;;;;6.40;5.22;;;;;;;12.05;72.06;98863.78;4861456;28;97971;-83
2022/04/25 02:38:15;;;;;;;6.25;5.32;;;;;;;11.94;72.08;98853.09;4861678;28;96657;-83
2022/04/25 02:40:41;;;;;;;5.10;4.60;;;;;;;11.64;71.97;98806.72;4893162;28;96891;-82
2022/04/25 02:43:06;;;;;;;6.38;5.10;;;;;;;11.83;71.83;98835.31;4860608;28;101376;-83
2022/04/25 02:45:32;;;;;;;4.60;4.10;;;;;;;11.91;72.68;98874.31;4893210;28;101483;-82
2022/04/25 02:47:58;;;;;;;6.10;4.40;;;;;;;11.91;72.59;98871.69;4893185;28;96809;-82
2022/04/25 02:50:24;;;;;;;6.18;4.57;;;;;;;11.85;72.80;98864.16;4877730;28;96841;-82
2022/04/25 02:52:53;;;;;;;5.72;4.30;;;;;;;11.87;72.67;98876.31;4876926;28;101041;-83
2022/04/25 02:55:20;;;;;;;4.45;3.95;;;;;;;11.73;72.62;98860.50;4859113;28;101298;-83
2022/04/25 02:57:45;;;;;;;5.78;4.18;;;;;;;11.81;72.59;98870.53;4892880;28;97572;-82
2022/04/25 03:00:11;;;;;;;4.30;3.42;;;;;;;11.73;72.58;98868.38;4892412;28;97454;-83
2022/04/25 03:02:37;;;;;;;5.25;3.78;;;;;;;11.76;72.65;98876.09;4877315;28;100150;-83
2022/04/25 03:05:03;;;;;;;4.65;3.45;;;;;;;11.76;72.62;98882.19;4876564;28;97352;-82
2022/04/25 03:07:29;;;;;;;3.35;3.05;;;;;;;11.73;72.36;98874.47;4877371;28;96814;-82
2022/04/25 03:09:54;;;;;;;5.05;3.28;;;;;;;11.74;72.34;98877.94;4892529;28;96979;-83
2022/04/25 03:12:20;;;;;;;3.67;3.25;;;;;;;11.73;72.49;98884.16;4861397;28;101095;-82
2022/04/25 03:14:45;;;;;;;3.83;3.42;;;;;;;11.73;72.43;98871.00;4861288;28;101459;-82
2022/04/25 03:17:12;;;;;;;4.35;3.50;;;;;;;11.87;71.66;98891.19;4877039;28;96618;-82
2022/04/25 03:19:37;;;;;;;4.18;3.30;;;;;;;11.79;72.25;98902.19;4876344;28;96751;-82
2022/04/25 03:22:04;;;;;;;4.65;3.65;;;;;;;11.59;72.26;98878.91;4860587;28;101355;-83
2022/04/25 03:24:30;;;;;;;5.93;3.45;;;;;;;11.43;72.76;98856.19;4876541;28;101499;-82
2022/04/25 03:26:59;;;;;;;3.67;3.22;;;;;;;11.83;72.00;98905.47;4892545;28;96732;-82
2022/04/25 03:29:25;;;;;;;3.25;2.80;;;;;;;11.76;71.87;98908.47;4876447;28;96858;-82
2022/04/25 03:31:50;;;;;;;3.58;3.17;;;;;;;11.75;72.15;98905.91;4861204;28;101445;-82
2022/04/25 03:34:17;;;;;;;5.18;3.70;;;;;;;11.70;72.59;98900.13;4891511;28;102024;-82
2022/04/25 03:36:46;;;;;;;4.65;3.70;;;;;;;11.76;72.29;98897.13;4892971;28;96636;-83
2022/04/25 03:39:11;;;;;;;3.72;3.25;;;;;;;11.78;71.94;98906.59;4891993;28;96976;-82
2022/04/25 03:41:37;;;;;;;3.78;3.10;;;;;;;11.63;71.64;98872.50;4876558;28;100695;-83
2022/04/25 03:44:05;;;;;;;4.18;3.30;;;;;;;11.63;72.00;98901.41;4891145;28;101341;-82
2022/04/25 03:46:31;;;;;;;4.38;3.33;;;;;;;11.67;72.19;98911.66;4892305;28;97310;-82
2022/04/25 03:48:56;;;;;;;4.15;3.70;;;;;;;11.56;72.35;98880.75;4876012;28;96825;-82
2022/04/25 03:51:22;;;;;;;3.88;3.50;;;;;;;11.54;72.35;98887.03;4860960;28;100448;-82
2022/04/25 03:53:48;;;;;;;4.32;3.47;;;;;;;11.70;72.13;98915.91;4860525;28;101017;-83
2022/04/25 03:58:57;;;;;;;3.70;3.40;;;;;;;11.65;71.96;98913.53;4875657;28;96807;-83
2022/04/25 04:01:23;;;;;;;4.05;3.60;;;;;;;11.64;71.67;98914.47;4876859;28;97707;-81
2022/04/25 04:03:48;;;;;;;5.50;3.70;;;;;;;11.73;71.57;98918.34;4893467;28;97874;-82
2022/04/25 04:06:15;;;;;;;3.88;3.47;;;;;;;11.71;71.41;98909.69;4860438;28;96687;-82
2022/04/25 04:08:41;;;;;;;4.80;3.95;;;;;;;11.78;71.16;98926.78;4876130;28;96873;-82
2022/04/25 04:11:07;;;;;;;4.75;4.20;;;;;;;11.39;70.80;98869.59;4874969;28;101087;-83
2022/04/25 04:13:32;;;;;;;5.15;4.45;;;;;;;11.82;70.98;98935.34;4860195;28;101885;-83
2022/04/25 04:15:58;;;;;;;6.07;4.20;;;;;;;11.63;71.10;98917.19;4876431;28;96626;-83
2022/04/25 04:18:23;;;;;;;4.38;3.97;;;;;;;11.56;70.76;98914.94;4860549;28;96943;-82
2022/04/25 04:20:50;;;;;;;4.47;3.88;;;;;;;11.49;71.14;98921.50;4875769;28;101068;-82
2022/04/25 04:23:15;;;;;;;5.10;4.20;;;;;;;11.47;70.61;98930.41;4876060;28;97604;-82
2022/04/25 04:25:41;;;;;;;6.75;4.03;;;;;;;11.35;70.76;98915.38;4892513;28;96701;-82
2022/04/25 04:28:07;;;;;;;5.03;4.30;;;;;;;11.60;70.86;98956.78;4892296;28;96871;-83
2022/04/25 04:30:33;;;;;;;5.30;4.20;;;;;;;11.47;70.94;98954.91;4878098;28;101323;-82
2022/04/25 04:32:58;;;;;;;6.07;4.65;;;;;;;11.56;70.86;98964.03;4879032;28;98011;-83
2022/04/25 04:38:08;;;;;;;5.18;4.00;;;;;;;11.62;70.95;98986.47;4881598;28;96784;-83
2022/04/25 04:40:34;;;;;;;5.07;4.57;;;;;;;11.48;70.59;98961.00;4879221;28;97727;-83
2022/04/25 04:43:00;;;;;;;5.57;4.88;;;;;;;11.63;70.65;98982.91;4878363;28;100086;-82
2022/04/25 04:45:26;;;;;;;4.80;4.30;;;;;;;11.74;70.09;98983.94;4863442;28;97770;-82
2022/04/25 04:47:52;;;;;;;4.97;4.45;;;;;;;11.69;70.20;98975.50;4879675;28;96871;-81
2022/04/25 04:50:18;;;;;;;5.53;4.75;;;;;;;11.63;70.23;98982.91;4862615;28;101413;-82
2022/04/25 04:52:44;;;;;;;5.25;4.30;;;;;;;11.34;70.41;98938.16;4879500;28;100928;-83
2022/04/25 04:55:11;;;;;;;6.25;4.40;;;;;;;11.69;70.21;98996.53;4878389;28;97213;-82
2022/04/25 04:57:38;;;;;;;4.43;3.92;;;;;;;11.56;70.00;98979.78;4879210;28;96809;-82
2022/04/25 05:00:05;;;;;;;4.32;3.88;;;;;;;11.57;70.42;98989.34;4861980;28;101344;-82
2022/04/25 05:02:32;;;;;;;5.03;4.25;;;;;;;11.59;70.34;98997.16;4878829;28;98580;-82
2022/04/25 05:04:58;;;;;;;19.85;5.47;;;;;;;11.62;70.35;99010.13;4878485;28;96712;-83
2022/04/25 05:07:23;;;;;;;4.13;3.72;;;;;;;11.55;70.32;98999.13;4878693;28;96890;-82
2022/04/25 05:09:49;;;;;;;5.05;3.60;;;;;;;11.46;70.30;99003.16;4894199;28;101151;-82
2022/04/25 05:12:15;;;;;;;6.20;4.15;;;;;;;11.54;70.27;99003.53;4878612;28;98442;-82
2022/04/25 05:14:40;;;;;;;5.25;3.60;;;;;;;11.54;70.35;99021.91;4878680;28;96933;-83
2022/04/25 05:17:06;;;;;;;4.47;4.07;;;;;;;11.54;70.10;99019.28;4894521;28;96864;-83
2022/04/25 05:19:32;;;;;;;3.90;3.50;;;;;;;11.51;70.16;99018.63;4878174;28;99932;-82
2022/04/25 05:21:57;;;;;;;4.20;3.80;;;;;;;11.67;70.03;99021.22;4894441;28;101332;-83
2022/04/25 05:24:23;;;;;;;3.95;3.50;;;;;;;11.61;70.20;99030.31;4893749;28;97193;-83
2022/04/25 05:26:48;;;;;;;3.83;3.42;;;;;;;11.39;70.18;98999.16;4894674;28;97335;-84
2022/04/25 05:29:14;;;;;;;4.82;3.33;;;;;;;11.56;70.04;99029.72;4861955;28;101804;-82
2022/04/25 05:31:40;;;;;;;3.85;3.55;;;;;;;11.55;70.07;99041.19;4894333;28;101093;-83
2022/04/25 05:34:05;;;;;;;4.60;3.33;;;;;;;11.51;70.39;99050.16;4893935;28;96686;-82
2022/04/25 05:36:31;;;;;;;3.83;3.22;;;;;;;11.45;70.33;99042.63;4878936;28;96854;-83
2022/04/25 05:38:56;;;;;;;3.75;3.33;;;;;;;11.43;70.00;99053.25;4893303;28;101037;-82
2022/04/25 05:41:22;;;;;;;4.35;3.42;;;;;;;11.36;70.03;99045.81;4878002;28;98015;-81
2022/04/25 05:43:48;;;;;;;5.20;3.67;;;;;;;11.39;69.70;99058.75;4877161;28;96748;-83
2022/04/25 05:46:13;;;;;;;3.95;3.30;;;;;;;11.43;69.69;99071.66;4862400;28;97540;-82
2022/04/25 05:54:07;;;;;;;5.38;4.10;;;;;;;11.35;69.70;99052.00;4877360;28;96908;-82
2022/04/25 05:56:33;;;;;;;7.03;5.47;;;;;;;11.43;69.45;99076.03;4878637;28;96763;-83
2022/04/25 05:58:58;;;;;;;8.27;6.18;;;;;;;11.30;69.47;99057.50;4877279;28;101282;-81
2022/04/25 06:01:24;;;;;;;5.88;4.40;;;;;;;11.37;69.41;99079.00;4877971;28;97936;-81
2022/04/25 06:03:49;;;;;;;7.72;4.32;;;;;;;11.41;69.26;99083.19;4893281;28;96987;-82
2022/04/25 06:06:15;;;;;;;5.03;4.05;;;;;;;11.28;69.43;99056.75;4861873;28;96997;-81
2022/04/25 06:08:41;;;;;;;4.75;3.75;;;;;;;11.44;69.48;99089.09;4877885;28;97945;-81
2022/04/25 06:11:08;;;;;;;3.95;3.30;;;;;;;11.32;69.28;99093.28;4877816;28;97877;-82
2022/04/25 06:13:33;;;;;;;5.78;3.20;;;;;;;11.33;69.47;99086.22;4877323;28;97589;-82
2022/04/25 06:15:59;;;;;;;4.38;3.33;;;;;;;11.21;69.26;99073.78;4862151;28;97023;-82
2022/04/25 06:18:24;;;;;;;12.18;7.60;;;;;;;11.37;69.24;99094.78;4893136;28;101354;-81
2022/04/25 06:20:50;;;;;;;5.68;4.55;;;;;;;11.38;69.13;99088.59;4893626;28;97598;-81
2022/04/25 06:23:16;;;;;;;5.70;4.47;;;;;;;11.30;69.03;99081.16;4861404;28;96839;-82
2022/04/25 06:25:41;;;;;;;4.95;3.97;;;;;;;11.39;69.34;99106.06;4877450;28;96872;-82
2022/04/25 06:28:08;;;;;;;5.25;4.15;;;;;;;11.30;69.06;99081.16;4861516;28;101571;-82
2022/04/25 06:30:33;;;;;;;4.93;4.30;;;;;;;11.34;68.89;99106.31;4877639;28;96913;-82
2022/04/25 06:33:02;;;;;;;4.97;4.43;;;;;;;11.27;69.35;99099.72;4877798;28;97839;-82
2022/04/25 06:35:28;;;;;;;6.15;3.80;;;;;;;11.26;68.89;99091.00;4877085;28;96859;-82
2022/04/25 06:37:54;;;;;;;4.55;4.10;;;;;;;11.32;68.81;99100.31;4861238;28;101833;-82
2022/04/25 06:40:20;;;;;;;6.70;3.88;;;;;;;11.20;68.93;99093.97;4877044;28;98342;-82
2022/04/25 06:42:46;;;;;;;4.80;3.65;;;;;;;11.21;68.54;99093.03;4876890;28;97275;-83
2022/04/25 06:45:13;;;;;;;4.05;3.65;;;;;;;11.42;68.51;99114.59;4861326;28;96853;-82
2022/04/25 06:47:39;;;;;;;7.13;4.50;;;;;;;11.22;68.54;99096.50;4893140;28;101318;-82
2022/04/25 06:50:05;;;;;;;5.45;3.80;;;;;;;11.23;68.45;99109.56;4877187;28;98117;-82
2022/04/25 06:52:31;;;;;;;4.40;3.50;;;;;;;11.23;68.59;99122.69;4861585;28;96701;-82
2022/04/25 06:54:57;;;;;;;4.47;3.63;;;;;;;11.25;68.57;99122.59;4861546;28;96825;-81
2022/04/25 06:57:22;;;;;;;5.95;4.32;;;;;;;11.23;68.40;99122.69;4892581;28;101833;-82
2022/04/25 06:59:48;;;;;;;5.07;4.18;;;;;;;11.25;68.30;99110.28;4860648;28;101176;-81
2022/04/25 07:02:15;;;;;;;5.82;3.92;;;;;;;11.33;69.12;99128.25;4860490;28;97532;-82
2022/04/25 07:04:42;;;;;;;4.47;3.72;;;;;;;11.18;68.58;99103.69;4861225;28;97156;-82
2022/04/25 07:07:07;;;;;;;5.00;4.35;;;;;;;11.36;68.51;99125.47;4877645;28;97546;-85
2022/04/25 07:09:33;;;;;;;5.80;4.22;;;;;;;11.29;68.66;99122.34;4876673;28;100894;-82
2022/04/25 07:11:59;;;;;;;5.00;3.97;;;;;;;11.45;68.45;99137.22;4876979;28;96691;-82
2022/04/25 07:14:26;;;;;;;4.72;4.03;;;;;;;11.41;68.44;99143.59;4893698;28;97173;-81
2022/04/25 07:16:52;;;;;;;4.85;3.67;;;;;;;11.31;68.40;99135.38;4876431;28;101733;-82
2022/04/25 07:19:19;;;;;;;4.78;3.70;;;;;;;11.03;68.54;99097.53;4892454;28;99225;-81
2022/04/25 07:30:02;;;;;;;5.00;4.03;;;;;;;11.29;68.37;99159.13;4865997;28;101617;-81
2022/04/25 07:32:28;;;;;;;3.92;3.47;;;;;;;11.28;68.11;99144.25;4876635;28;96792;-82
2022/04/25 07:34:54;;;;;;;6.75;3.75;;;;;;;11.28;68.75;99157.41;4860898;28;97188;-81
2022/04/25 07:37:22;;;;;;;4.72;3.55;;;;;;;11.29;68.48;99167.00;4860590;28;101774;-82
2022/04/25 07:39:48;;;;;;;4.60;3.67;;;;;;;11.36;68.47;99175.38;4892329;28;101056;-83
2022/04/25 07:42:15;;;;;;;4.25;3.75;;;;;;;11.06;68.34;99143.78;4860666;28;96757;-79
2022/04/25 07:44:42;;;;;;;4.35;3.67;;;;;;;11.35;68.55;99181.56;4892005;28;97005;-82
2022/04/25 07:47:08;;;;;;;4.32;3.63;;;;;;;11.20;68.47;99161.38;4876297;28;101241;-82
2022/04/25 07:49:34;;;;;;;4.75;3.70;;;;;;;11.37;68.27;99192.84;4891817;28;97576;-81
2022/04/25 07:51:59;;;;;;;4.38;3.35;;;;;;;11.27;68.44;99184.63;4892165;28;97654;-82
2022/04/25 07:54:25;;;;;;;4.35;3.45;;;;;;;11.30;68.23;99192.31;4860339;28;98090;-82
2022/04/25 07:56:51;;;;;;;4.50;3.50;;;;;;;11.25;68.11;99183.00;4861059;28;98149;-82
2022/04/25 07:59:17;;;;;;;3.97;3.58;;;;;;;11.39;67.79;99198.00;4891003;28;101608;-81
2022/04/25 08:01:43;;;;;;;4.97;3.80;;;;;;;11.45;67.60;99202.94;4877309;28;96655;-82
2022/04/25 08:04:09;;;;;;;4.80;3.53;;;;;;;11.46;67.62;99205.50;4859500;28;96941;-81
2022/04/25 08:06:35;;;;;;;3.58;3.28;;;;;;;11.40;67.99;99212.84;4876261;28;101291;-81
2022/04/25 08:09:03;;;;;;;3.80;3.50;;;;;;;11.44;67.89;99217.84;4860001;28;101018;-81
2022/04/25 08:11:29;;;;;;;3.20;2.90;;;;;;;11.29;67.87;99195.91;4860574;28;96627;-81
2022/04/25 08:19:23;;;;;;;4.65;3.50;;;;;;;11.37;68.20;99229.63;4878246;28;97549;-82
2022/04/25 08:21:49;;;;;;;4.25;3.85;;;;;;;11.30;68.49;99228.25;4876338;28;97013;-82
2022/04/25 08:24:15;;;;;;;5.00;3.75;;;;;;;11.35;67.89;99214.88;4875434;28;96861;-82
2022/04/25 08:26:41;;;;;;;4.68;3.70;;;;;;;11.15;68.16;99189.69;4876066;28;100843;-82
2022/04/25 08:29:07;;;;;;;4.32;3.40;;;;;;;11.43;68.15;99238.94;4875503;28;101533;-82
2022/04/25 08:31:34;;;;;;;7.43;3.50;;;;;;;11.30;67.96;99231.75;4876118;28;96791;-81
2022/04/25 08:34:01;;;;;;;3.08;2.78;;;;;;;11.17;68.16;99217.59;4860296;28;96741;-81
2022/04/25 08:36:27;;;;;;;3.95;3.20;;;;;;;11.30;67.77;99244.03;4891653;28;101625;-82
2022/04/25 08:38:52;;;;;;;3.05;2.75;;;;;;;11.20;68.02;99248.06;4859704;28;101550;-83
2022/04/25 08:41:21;;;;;;;4.32;3.60;;;;;;;11.20;67.83;99230.56;4875337;28;97663;-82
2022/04/25 08:43:51;;;;;;;3.85;3.30;;;;;;;11.21;68.08;99252.41;4859057;28;97790;-82
2022/04/25 08:46:16;;;;;;;3.38;2.95;;;;;;;11.25;67.77;99267.06;4876072;28;97704;-83
2022/04/25 08:48:43;;;;;;;3.70;3.40;;;;;;;11.20;67.70;99254.19;4891868;28;97874;-82
2022/04/25 08:51:10;;;;;;;5.38;3.30;;;;;;;11.33;67.87;99278.88;4875940;28;96868;-81
2022/04/25 08:53:39;;;;;;;3.55;3.17;;;;;;;11.12;67.80;99260.78;4875367;28;96852;-83
2022/04/25 08:56:07;;;;;;;4.22;3.60;;;;;;;11.27;67.86;99273.09;4891233;28;101798;-82
2022/04/25 08:58:35;;;;;;;4.20;3.70;;;;;;;11.35;67.82;99289.31;4876165;28;97797;-83
2022/04/25 09:01:01;;;;;;;4.32;3.55;;;;;;;11.30;68.05;99284.28;4876014;28;96839;-81
2022/04/25 09:03:27;;;;;;;4.28;3.88;;;;;;;11.25;68.08;99275.78;4891173;28;96853;-82
2022/04/25 09:05:52;;;;;;;6.10;3.72;;;;;;;11.30;68.16;99291.31;4859182;28;101377;-81
2022/04/25 09:08:18;;;;;;;4.78;3.63;;;;;;;11.36;68.30;99303.28;4891494;28;97912;-83
2022/04/25 09:10:44;;;;;;;3.95;2.90;;;;;;;11.32;67.98;99303.44;4891329;28;96775;-81
2022/04/25 09:13:11;;;;;;;3.78;3.38;;;;;;;11.33;67.99;99305.13;4875955;28;96879;-82
2022/04/25 09:15:36;;;;;;;5.13;3.45;;;;;;;11.19;67.78;99283.16;4875257;28;97964;-82
2022/04/25 09:18:02;;;;;;;3.42;3.13;;;;;;;11.37;68.01;99312.84;4894174;28;101366;-81
2022/04/25 09:20:28;;;;;;;7.03;3.28;;;;;;;10.92;67.89;99260.03;4878318;28;96696;-81
2022/04/25 09:22:55;;;;;;;4.65;3.40;;;;;;;11.35;67.73;99335.75;4879646;28;96696;-81
2022/04/25 09:25:21;;;;;;;5.05;4.47;;;;;;;11.27;68.24;99321.22;4862440;28;97571;-82
2022/04/25 09:27:48;;;;;;;4.97;3.90;;;;;;;11.26;68.43;99340.56;4894529;28;101287;-81
2022/04/25 09:30:18;;;;;;;4.25;3.45;;;;;;;11.25;68.12;99333.59;4862023;28;97465;-82
2022/04/25 09:32:53;;;;;;;5.20;3.60;;;;;;;11.08;68.44;99317.84;4878677;28;97890;-82
2022/04/25 09:35:33;;;;;;;5.00;4.18;;;;;;;11.22;68.24;99338.16;4862004;28;101302;-84
2022/04/25 09:38:04;;;;;;;5.88;4.50;;;;;;;11.12;68.78;99321.19;4862793;28;101706;-81
2022/04/25 09:40:32;;;;;;;3.80;3.35;;;;;;;11.32;67.87;99342.84;4862225;28;96858;-81
2022/04/25 09:43:07;;;;;;;4.47;3.47;;;;;;;11.21;68.39;99353.06;4878178;28;99940;-81
2022/04/25 09:45:33;;;;;;;4.53;3.78;;;;;;;11.17;68.34;99337.53;4877397;28;101489;-81
2022/04/25 09:47:59;;;;;;;5.57;4.07;;;;;;;11.24;68.84;99358.16;4894578;28;101135;-81
2022/04/25 09:50:28;;;;;;;6.10;4.22;;;;;;;11.30;68.35;99354.38;4861980;28;97109;-82
2022/04/25 09:53:00;;;;;;;5.65;4.43;;;;;;;11.19;68.78;99340.94;4894469;28;97843;-81
2022/04/25 09:55:34;;;;;;;6.55;4.47;;;;;;;11.34;69.12;99361.16;4876655;28;101650;-81
2022/04/25 09:58:14;;;;;;;5.10;4.10;;;;;;;11.29;68.63;99343.03;4878325;28;97579;-81
2022/04/25 10:00:40;;;;;;;5.65;3.92;;;;;;;11.43;68.61;99363.31;4862111;28;96970;-81
2022/04/25 10:03:07;;;;;;;5.25;4.15;;;;;;;11.44;68.49;99370.25;4878118;28;96923;-81
2022/04/25 10:05:46;;;;;;;5.15;4.35;;;;;;;11.48;68.62;99376.19;4860967;28;100456;-81
2022/04/25 10:08:19;;;;;;;5.72;4.57;;;;;;;11.48;68.33;99370.94;4893804;28;101620;-81
2022/04/25 10:10:58;;;;;;;4.82;4.32;;;;;;;11.33;68.59;99360.31;4893447;28;96749;-81
2022/04/25 10:13:28;;;;;;;6.55;5.05;;;;;;;11.12;69.09;99340.41;4863094;28;97298;-82
2022/04/25 10:15:55;;;;;;;6.78;5.30;;;;;;;11.25;69.21;99369.53;4877559;28;101848;-81
2022/04/25 10:18:21;;;;;;;6.82;5.57;;;;;;;11.29;69.30;99379.81;4878018;28;101596;-83
2022/04/25 10:20:47;;;;;;;9.82;6.80;;;;;;;11.25;69.21;99380.03;4892894;28;97471;-81
2022/04/25 10:23:14;;;;;;;7.97;7.07;;;;;;;11.03;69.64;99356.66;4861990;28;96908;-81
2022/04/25 10:25:46;;;;;;;9.18;6.88;;;;;;;11.22;68.99;99385.44;4876742;28;101370;-81
2022/04/25 10:28:35;;;;;;;8.60;7.30;;;;;;;11.32;68.92;99392.78;4877349;28;101715;-82
2022/04/25 10:31:04;;;;;;;6.85;6.20;;;;;;;11.23;68.93;99371.41;4892773;28;96854;-81
2022/04/25 10:33:49;;;;;;;8.52;6.88;;;;;;;11.06;69.17;99357.34;4893100;28;97062;-82
2022/04/25 10:36:37;;;;;;;8.82;7.50;;;;;;;11.34;69.27;99397.94;4893572;28;100564;-81
2022/04/25 10:39:14;;;;;;;7.60;6.80;;;;;;;11.21;69.43;99381.13;4893287;28;99866;-81
2022/04/25 10:44:29;;;;;;;7.53;6.72;;;;;;;11.36;69.08;99382.94;4879120;28;96889;-81
2022/04/25 10:47:06;;;;;;;10.00;7.53;;;;;;;11.43;69.24;99415.88;4893040;28;101569;-81
2022/04/25 10:49:55;;;;;;;9.23;8.23;;;;;;;11.42;69.11;99421.19;4892512;28;97545;-81
2022/04/25 10:52:53;;;;;;;9.65;8.35;;;;;;;11.52;69.68;99415.41;4877328;28;96915;-82
2022/04/25 10:55:23;;;;;;;8.73;7.82;;;;;;;11.50;69.19;99416.41;4892765;28;97372;-81
2022/04/25 10:58:04;;;;;;;8.10;7.30;;;;;;;11.50;69.03;99419.03;4876775;28;102227;-81
2022/04/25 11:03:14;;;;;;;8.65;7.75;;;;;;;11.49;68.85;99426.06;4894475;28;96721;-81
2022/04/25 11:05:51;;;;;;;9.63;8.00;;;;;;;11.41;69.02;99409.00;4893104;28;97798;-81
2022/04/25 11:08:20;;;;;;;10.63;8.02;;;;;;;11.55;69.20;99433.63;4861324;28;102008;-81
2022/04/25 11:10:51;;;;;;;9.63;8.05;;;;;;;11.56;69.21;99437.09;4892532;28;97855;-81
2022/04/25 11:13:18;;;;;;;10.38;9.27;;;;;;;11.60;69.24;99445.66;4876663;28;97262;-82
2022/04/25 11:15:48;;;;;;;22.70;8.55;;;;;;;11.59;69.67;99449.25;4876722;28;96785;-81
2022/04/25 11:18:27;;;;;;;10.10;9.07;;;;;;;11.43;69.73;99455.31;4877388;28;101904;-80
2022/04/25 11:20:55;;;;;;;9.50;7.65;;;;;;;11.45;69.26;99448.16;4892423;28;97918;-81
2022/04/25 11:23:30;;;;;;;8.88;7.97;;;;;;;11.42;69.58;99461.47;4876610;28;96871;-82
2022/04/25 11:25:56;;;;;;;9.77;8.00;;;;;;;11.33;69.22;99438.28;4861858;28;96703;-81
2022/04/25 11:28:23;;;;;;;9.20;8.27;;;;;;;11.37;68.90;99441.59;4861008;28;101482;-82
2022/04/25 11:31:13;;;;;;;14.35;9.43;;;;;;;11.41;68.89;99470.28;4860712;28;101332;-81
2022/04/25 11:33:47;;;;;;;13.27;9.32;;;;;;;11.37;69.19;99475.75;4892044;28;97336;-82
2022/04/25 11:36:13;;;;;;;9.80;8.80;;;;;;;11.36;69.32;99464.41;4892683;28;96911;-81
2022/04/25 11:41:25;;;;;;;9.70;8.35;;;;;;;11.27;69.05;99476.22;4879360;28;101734;-82
2022/04/25 11:43:51;;;;;;;10.85;9.50;;;;;;;11.28;68.98;99474.44;4875532;28;96707;-82
2022/04/25 11:46:16;;;;;;;10.27;9.05;;;;;;;11.38;69.14;99493.25;4892986;28;96943;-81
2022/04/25 11:48:42;;;;;;;9.75;8.55;;;;;;;11.33;69.30;99488.22;4891823;28;98043;-82
2022/04/25 11:51:08;;;;;;;11.57;9.80;;;;;;;11.22;69.28;99470.34;4892799;28;97741;-80
2022/04/25 11:53:34;;;;;;;10.68;9.18;;;;;;;11.41;68.93;99501.81;4875932;28;96651;-81
2022/04/25 11:56:16;;;;;;;10.52;9.07;;;;;;;11.45;68.77;99502.50;4876785;28;96928;-80
2022/04/25 11:58:42;;;;;;;10.95;9.00;;;;;;;11.42;68.85;99500.88;4875586;28;102019;-83
2022/04/25 12:01:09;;;;;;;10.57;8.90;;;;;;;11.38;68.87;99504.59;4876266;28;101344;-82
2022/04/25 12:03:36;;;;;;;10.27;9.20;;;;;;;11.26;68.69;99489.47;4875726;28;96710;-83